createdAt,value
2018-12-09T13:00:45.490Z,41.76
2018-12-09T13:01:45.494Z,41.76
2018-12-09T13:04:10.370Z,41.66
2018-12-09T13:05:10.401Z,41.78
2018-12-09T13:06:10.441Z,41.49
2018-12-09T13:07:10.488Z,41.39
2018-12-09T13:08:10.520Z,41.59
2018-12-09T13:09:10.553Z,41.59
2018-12-09T13:10:54.478Z,41.39
2018-12-09T13:12:34.818Z,41.49
2018-12-09T13:13:34.855Z,41.11
2018-12-09T13:14:34.888Z,41.01
2018-12-09T13:15:34.923Z,40.84
2018-12-09T13:16:34.945Z,41.22
2018-12-09T13:17:34.989Z,41.03
2018-12-09T13:18:35.027Z,40.84
2018-12-09T13:19:35.063Z,41.13
2018-12-09T13:20:35.102Z,40.74
2018-12-09T13:21:35.150Z,40.94
2018-12-09T13:22:35.206Z,40.36
2018-12-09T13:23:35.230Z,40.26
2018-12-09T13:24:35.254Z,40.37
2018-12-09T13:25:35.306Z,40.28
2018-12-09T13:26:35.339Z,40.47
2018-12-09T13:27:35.378Z,40.28
2018-12-09T13:28:35.420Z,39.89
2018-12-09T13:29:35.455Z,40.09
2018-12-09T13:30:35.495Z,39.79
2018-12-09T13:31:35.540Z,39.79
2018-12-09T13:32:35.575Z,39.79
2018-12-09T13:33:35.614Z,39.41
2018-12-09T13:34:35.651Z,39.22
2018-12-09T13:35:35.699Z,39.12
2018-12-09T13:36:35.751Z,39.31
2018-12-09T13:37:35.771Z,39.31
2018-12-09T13:38:25.430Z,39.34
2018-12-09T13:39:25.448Z,39.34
2018-12-09T13:40:25.474Z,39.53
2018-12-09T13:41:25.519Z,38.95
2018-12-09T13:42:25.563Z,38.46
2018-12-09T13:43:25.605Z,38.76
2018-12-09T13:44:25.640Z,39.14
2018-12-09T13:45:25.680Z,39.04
2018-12-09T13:46:25.716Z,39.14
2018-12-09T13:47:25.770Z,39.24
2018-12-09T13:48:25.817Z,38.76
2018-12-09T13:49:25.833Z,38.46
2018-12-09T13:50:25.870Z,38.37
2018-12-09T13:51:25.919Z,38.56
2018-12-09T13:52:25.961Z,38.46
2018-12-09T13:53:26.007Z,37.89
2018-12-09T13:54:26.037Z,37.91
2018-12-09T13:55:26.084Z,38.01
2018-12-09T13:56:26.202Z,38.20
2018-12-09T13:57:26.168Z,38.20
2018-12-09T13:58:26.194Z,38.29
2018-12-09T13:59:27.569Z,38.39
2018-12-09T14:00:26.275Z,38.49
2018-12-09T14:01:26.315Z,37.62
2018-12-09T14:02:26.359Z,37.62
2018-12-09T14:03:26.405Z,37.62
2018-12-09T14:04:26.440Z,38.20
2018-12-09T14:05:26.476Z,38.20
2018-12-09T14:06:26.519Z,38.10
2018-12-09T14:07:26.555Z,37.71
2018-12-09T14:08:26.597Z,37.52
2018-12-09T14:09:26.645Z,37.23
2018-12-09T14:10:26.681Z,37.52
2018-12-09T14:11:26.721Z,37.13
2018-12-09T14:12:26.763Z,37.35
2018-12-09T14:13:26.798Z,37.23
2018-12-09T14:14:26.846Z,37.33
2018-12-09T14:15:26.889Z,37.13
2018-12-09T14:16:26.934Z,37.13
2018-12-09T14:17:26.966Z,36.87
2018-12-09T14:18:27.011Z,37.73
2018-12-09T14:19:27.049Z,37.15
2018-12-09T14:20:27.086Z,37.25
2018-12-09T14:21:27.138Z,36.96
2018-12-09T14:22:27.166Z,36.96
2018-12-09T14:23:27.209Z,38.02
2018-12-09T14:24:27.252Z,38.41
2018-12-09T14:25:27.290Z,37.45
2018-12-09T14:26:27.338Z,37.25
2018-12-09T14:27:27.373Z,36.96
2018-12-09T14:28:27.413Z,36.87
2018-12-09T14:29:27.457Z,36.96
2018-12-09T14:30:27.488Z,36.96
2018-12-09T14:31:27.530Z,37.15
2018-12-09T14:32:27.575Z,36.96
2018-12-09T14:33:27.686Z,37.15
2018-12-09T14:34:27.660Z,37.15
2018-12-09T14:35:27.690Z,37.35
2018-12-09T14:36:27.733Z,37.54
2018-12-09T14:37:27.782Z,37.15
2018-12-09T14:38:27.818Z,36.87
2018-12-09T14:39:27.861Z,37.17
2018-12-09T14:40:27.900Z,37.45
2018-12-09T14:41:28.012Z,37.08
2018-12-09T14:42:27.977Z,36.96
2018-12-09T14:43:28.015Z,37.25
2018-12-09T14:44:29.405Z,36.79
2018-12-09T14:45:28.096Z,36.59
2018-12-09T14:46:28.137Z,36.59
2018-12-09T14:47:28.175Z,36.69
2018-12-09T14:48:28.224Z,36.50
2018-12-09T14:49:28.266Z,36.59
2018-12-09T14:50:28.304Z,36.69
2018-12-09T14:51:28.342Z,36.40
2018-12-09T14:52:28.384Z,36.79
2018-12-09T14:53:28.422Z,36.69
2018-12-09T14:54:28.509Z,36.69
2018-12-09T14:55:28.505Z,36.59
2018-12-09T14:56:28.548Z,36.59
2018-12-09T14:57:28.590Z,36.69
2018-12-09T14:58:28.625Z,36.98
2018-12-09T14:59:28.674Z,36.88
2018-12-09T15:00:28.709Z,36.69
2018-12-09T15:01:28.764Z,36.59
2018-12-09T15:02:28.801Z,36.48
2018-12-09T15:03:28.834Z,36.79
2018-12-09T15:04:28.873Z,36.30
2018-12-09T15:05:28.920Z,36.40
2018-12-09T15:06:28.957Z,36.77
2018-12-09T15:07:28.987Z,37.37
2018-12-09T15:08:29.042Z,36.50
2018-12-09T15:09:29.074Z,36.40
2018-12-09T15:10:29.117Z,36.30
2018-12-09T15:11:29.161Z,36.30
2018-12-09T15:12:29.199Z,36.30
2018-12-09T15:13:29.238Z,36.69
2018-12-09T15:14:29.307Z,36.40
2018-12-09T15:15:29.315Z,36.40
2018-12-09T15:16:29.371Z,36.30
2018-12-09T15:17:29.397Z,36.11
2018-12-09T15:18:29.437Z,35.92
2018-12-09T15:19:29.491Z,36.40
2018-12-09T15:20:29.518Z,36.01
2018-12-09T15:21:29.561Z,35.92
2018-12-09T15:22:29.606Z,36.11
2018-12-09T15:23:29.650Z,36.11
2018-12-09T15:24:29.680Z,36.11
2018-12-09T15:25:29.730Z,35.92
2018-12-09T15:26:29.766Z,35.92
2018-12-09T15:27:29.809Z,36.11
2018-12-09T15:28:29.858Z,36.21
2018-12-09T15:29:29.888Z,36.11
2018-12-09T15:30:29.933Z,36.01
2018-12-09T15:31:29.973Z,36.01
2018-12-09T15:32:30.005Z,36.21
2018-12-09T15:33:30.054Z,35.92
2018-12-09T15:34:30.111Z,36.11
2018-12-09T15:35:30.132Z,36.11
2018-12-09T15:36:30.189Z,35.82
2018-12-09T15:37:30.228Z,36.21
2018-12-09T15:38:30.250Z,36.11
2018-12-09T15:39:30.304Z,36.88
2018-12-09T15:40:30.339Z,36.40
2018-12-09T15:41:30.379Z,37.27
2018-12-09T15:42:30.416Z,36.40
2018-12-09T15:43:30.460Z,36.40
2018-12-09T15:44:30.505Z,36.50
2018-12-09T15:45:30.550Z,36.30
2018-12-09T15:46:30.586Z,36.30
2018-12-09T15:47:30.621Z,36.59
2018-12-09T15:48:30.778Z,36.40
2018-12-09T15:49:30.712Z,36.69
2018-12-09T15:50:30.740Z,36.59
2018-12-09T15:51:30.782Z,36.30
2018-12-09T15:52:30.835Z,36.40
2018-12-09T15:53:30.863Z,36.59
2018-12-09T15:54:30.916Z,36.40
2018-12-09T15:55:30.949Z,36.50
2018-12-09T15:56:30.983Z,36.50
2018-12-09T15:57:31.025Z,36.40
2018-12-09T15:58:31.071Z,36.30
2018-12-09T15:59:32.269Z,36.59
2018-12-09T16:00:31.153Z,37.46
2018-12-09T16:01:31.191Z,36.59
2018-12-09T16:02:31.221Z,37.17
2018-12-09T16:03:31.275Z,36.59
2018-12-09T16:04:31.315Z,36.59
2018-12-09T16:05:31.347Z,36.40
2018-12-09T16:06:31.391Z,36.50
2018-12-09T16:07:31.433Z,36.50
2018-12-09T16:08:31.480Z,36.59
2018-12-09T16:09:31.517Z,36.69
2018-12-09T16:10:31.554Z,36.30
2018-12-09T16:11:31.595Z,36.40
2018-12-09T16:12:31.640Z,36.50
